This is the latest recevied weather packets stored in our database for station/object PA3DZX-13. If no packets are shown the sender has not sent any weather packets the latest 10 day(s).
| Time | Temp. | Humidity | Pressure | Rain* | Wind** | Luminosity | Snow |
|---|---|---|---|---|---|---|---|
| 1777710139 | 20° C | 41% | 1018.7 hPa | 0 mm | - | - | - |
| 1777709238 | 18.89° C | 40% | 1018.7 hPa | 0 mm | - | - | - |
| 1777708338 | 18.89° C | 42% | 1018.7 hPa | 0 mm | - | - | - |
| 1777707438 | 17.78° C | 45% | 1018.8 hPa | 0 mm | - | - | - |
| 1777706537 | 16.67° C | 46% | 1019 hPa | 0 mm | - | - | - |
| 1777705637 | 16.67° C | 46% | 1018.9 hPa | 0 mm | - | - | - |
| 1777704736 | 15.56° C | 50% | 1018.8 hPa | 0 mm | - | - | - |
| 1777703836 | 15° C | 51% | 1018.9 hPa | 0 mm | - | - | - |
| 1777702935 | 13.89° C | 55% | 1019 hPa | 0 mm | - | - | - |
| 1777702036 | 12.78° C | 56% | 1019 hPa | 0 mm | - | - | - |
| 1777701135 | 12.78° C | 56% | 1019 hPa | 0 mm | - | - | - |
| 1777700235 | 11.67° C | 60% | 1019 hPa | 0 mm | - | - | - |
| 1777699335 | 11.67° C | 61% | 1019 hPa | 0 mm | - | - | - |
| 1777698435 | 10.56° C | 62% | 1019 hPa | 0 mm | - | - | - |
| 1777697535 | 10° C | 66% | 1019.1 hPa | 0 mm | - | - | - |
| 1777696635 | 8.89° C | 66% | 1019.1 hPa | 0 mm | - | - | - |
| 1777695735 | 10° C | 65% | 1019.2 hPa | 0 mm | - | - | - |
| 1777694835 | 10° C | 63% | 1019.4 hPa | 0 mm | - | - | - |
| 1777693935 | 10° C | 62% | 1019.5 hPa | 0 mm | - | - | - |
| 1777693035 | 10° C | 62% | 1019.5 hPa | 0 mm | - | - | - |
| 1777692134 | 10° C | 61% | 1019.5 hPa | 0 mm | - | - | - |
| 1777691234 | 10.56° C | 60% | 1019.7 hPa | 0 mm | - | - | - |
| 1777690334 | 10.56° C | 59% | 1019.7 hPa | 0 mm | - | - | - |
| 1777689434 | 10.56° C | 57% | 1019.8 hPa | 0 mm | - | - | - |
| 1777688533 | 10.56° C | 58% | 1019.9 hPa | 0 mm | - | - | - |
* Rain latest hour (hover to see other rain measurements)
** Current wind speed in m/s (hover to see current wind gust speed)